createdAt,value
2018-11-04T00:02:02.638Z,24.18
2018-11-04T00:04:30.236Z,23.42
2018-11-04T00:06:57.911Z,25.57
2018-11-04T00:09:25.496Z,21.15
2018-11-04T00:11:53.085Z,21.75
2018-11-04T00:14:20.675Z,21.37
2018-11-04T00:16:48.340Z,22.45
2018-11-04T00:19:15.904Z,23.73
2018-11-04T00:21:43.533Z,24.07
2018-11-04T00:24:11.155Z,23.47
2018-11-04T00:26:38.723Z,22.42
2018-11-04T00:29:06.338Z,22.67
2018-11-04T00:31:33.920Z,21.80
2018-11-04T00:34:01.520Z,21.23
2018-11-04T00:36:29.133Z,22.42
2018-11-04T00:38:56.663Z,20.57
2018-11-04T00:41:24.294Z,19.92
2018-11-04T00:43:51.907Z,21.90
2018-11-04T00:46:19.515Z,23.18
2018-11-04T00:48:47.104Z,20.68
2018-11-04T00:51:14.666Z,21.85
2018-11-04T00:53:42.222Z,22.58
2018-11-04T00:56:09.809Z,21.35
2018-11-04T00:58:37.392Z,23.22
2018-11-04T01:01:05.548Z,22.15
2018-11-04T01:03:33.197Z,22.60
2018-11-04T01:06:00.770Z,22.05
2018-11-04T01:08:28.403Z,22.50
2018-11-04T01:10:55.961Z,21.80
2018-11-04T01:13:23.503Z,22.02
2018-11-04T01:15:51.030Z,22.07
2018-11-04T01:18:18.565Z,22.00
2018-11-04T01:20:46.148Z,21.85
2018-11-04T01:23:13.701Z,21.52
2018-11-04T01:25:41.256Z,20.85
2018-11-04T01:28:08.874Z,21.50
2018-11-04T01:30:36.470Z,21.60
2018-11-04T01:33:04.784Z,21.25
2018-11-04T01:35:32.348Z,20.32
2018-11-04T01:37:59.913Z,22.15
2018-11-04T01:40:27.447Z,21.85
2018-11-04T01:42:54.970Z,21.45
2018-11-04T01:45:22.486Z,21.40
2018-11-04T01:47:50.054Z,21.62
2018-11-04T01:50:17.630Z,22.32
2018-11-04T01:52:45.165Z,22.70
2018-11-04T01:55:12.970Z,21.52
2018-11-04T01:57:40.534Z,21.33
2018-11-04T02:00:15.192Z,20.48
2018-11-04T02:02:43.692Z,19.60
2018-11-04T02:05:11.854Z,20.50
2018-11-04T02:07:39.826Z,21.30
2018-11-04T02:10:09.008Z,21.30
2018-11-04T02:12:36.699Z,19.90
2018-11-04T02:15:04.662Z,21.23
2018-11-04T02:17:32.253Z,19.15
2018-11-04T02:19:59.720Z,21.90
2018-11-04T02:22:27.294Z,20.90
2018-11-04T02:24:54.870Z,20.02
2018-11-04T02:27:22.434Z,21.42
2018-11-04T02:29:49.973Z,21.82
2018-11-04T02:32:17.557Z,19.87
2018-11-04T02:34:45.155Z,19.70
2018-11-04T02:37:12.720Z,21.17
2018-11-04T02:39:40.335Z,20.55
2018-11-04T02:42:07.971Z,18.92
2018-11-04T02:44:35.559Z,19.12
2018-11-04T02:47:03.126Z,21.05
2018-11-04T02:49:30.607Z,18.87
2018-11-04T02:51:58.237Z,21.05
2018-11-04T02:54:25.761Z,20.92
2018-11-04T02:56:53.331Z,20.20
2018-11-04T02:59:20.917Z,19.20
2018-11-04T03:01:48.501Z,19.73
2018-11-04T03:04:16.021Z,18.50
2018-11-04T03:06:43.522Z,19.02
2018-11-04T03:09:11.203Z,20.43
2018-11-04T03:11:38.743Z,17.57
2018-11-04T03:14:06.317Z,18.65
2018-11-04T03:16:33.839Z,18.42
2018-11-04T03:19:01.446Z,17.50
2018-11-04T03:21:28.973Z,18.80
2018-11-04T03:23:56.556Z,16.82
2018-11-04T03:26:24.119Z,17.85
2018-11-04T03:28:51.669Z,19.32
2018-11-04T03:31:19.231Z,16.80
2018-11-04T03:33:46.798Z,20.60
2018-11-04T03:36:14.366Z,19.30
2018-11-04T03:38:41.922Z,18.27
2018-11-04T03:41:09.488Z,20.40
2018-11-04T03:43:37.016Z,21.00
2018-11-04T03:46:04.731Z,22.42
2018-11-04T03:48:32.271Z,19.55
2018-11-04T03:50:59.828Z,21.10
2018-11-04T03:53:27.355Z,19.85
2018-11-04T03:55:54.898Z,19.48
2018-11-04T03:58:22.446Z,19.30
2018-11-04T04:00:49.986Z,20.08
2018-11-04T04:03:17.554Z,19.50
2018-11-04T04:05:45.167Z,19.17
2018-11-04T04:08:12.719Z,19.45
2018-11-04T04:10:40.289Z,19.70
2018-11-04T04:13:07.819Z,20.68
2018-11-04T04:15:35.363Z,20.32
2018-11-04T04:18:02.905Z,20.20
2018-11-04T04:20:30.462Z,21.80
2018-11-04T04:22:58.014Z,20.85
2018-11-04T04:25:25.600Z,20.37
2018-11-04T04:27:53.114Z,20.68
2018-11-04T04:30:20.677Z,19.23
2018-11-04T04:32:48.235Z,20.35
2018-11-04T04:35:15.858Z,20.37
2018-11-04T04:37:43.381Z,19.77
2018-11-04T04:40:10.958Z,19.95
2018-11-04T04:42:38.607Z,21.12
2018-11-04T04:45:06.241Z,20.08
2018-11-04T04:47:34.098Z,18.85
2018-11-04T04:50:01.704Z,21.30
2018-11-04T04:52:29.234Z,20.60
2018-11-04T04:54:56.761Z,18.87
2018-11-04T04:57:24.347Z,20.25
2018-11-04T04:59:51.893Z,20.10
2018-11-04T05:02:19.394Z,21.10
2018-11-04T05:04:46.954Z,21.23
2018-11-04T05:07:14.559Z,19.73
2018-11-04T05:09:42.108Z,20.85
2018-11-04T05:12:09.644Z,20.85
2018-11-04T05:14:37.229Z,20.75
2018-11-04T05:17:05.044Z,20.97
2018-11-04T05:19:32.591Z,19.55
2018-11-04T05:22:00.156Z,19.25
2018-11-04T05:24:27.683Z,18.75
2018-11-04T05:26:55.247Z,19.57
2018-11-04T05:29:22.855Z,19.57
2018-11-04T05:31:50.466Z,19.12
2018-11-04T05:34:18.057Z,18.70
2018-11-04T05:36:45.607Z,19.27
2018-11-04T05:39:13.164Z,20.10
2018-11-04T05:41:40.698Z,19.23
2018-11-04T05:44:08.943Z,21.12
2018-11-04T05:46:36.466Z,19.95
2018-11-04T05:49:04.120Z,20.00
2018-11-04T05:51:31.677Z,21.10
2018-11-04T05:53:59.185Z,20.85
2018-11-04T05:56:26.777Z,18.48
2018-11-04T05:58:54.324Z,20.95
2018-11-04T06:01:21.938Z,19.98
2018-11-04T06:03:49.557Z,19.02
2018-11-04T06:06:17.151Z,19.23
2018-11-04T06:08:44.668Z,19.12
2018-11-04T06:11:12.262Z,22.40
2018-11-04T06:13:39.861Z,20.43
2018-11-04T06:16:07.792Z,21.80
2018-11-04T06:18:35.353Z,20.43
2018-11-04T06:21:02.900Z,21.23
2018-11-04T06:23:30.553Z,19.95
2018-11-04T06:25:58.114Z,19.65
2018-11-04T06:28:25.709Z,21.25
2018-11-04T06:30:53.270Z,21.73
2018-11-04T06:33:20.809Z,22.10
2018-11-04T06:35:48.366Z,20.62
2018-11-04T06:38:15.925Z,22.40
2018-11-04T06:40:43.514Z,22.13
2018-11-04T06:43:11.098Z,20.97
2018-11-04T06:45:38.729Z,20.12
2018-11-04T06:48:06.224Z,20.30
2018-11-04T06:50:33.816Z,20.40
2018-11-04T06:53:01.378Z,21.30
2018-11-04T06:55:28.935Z,19.10
2018-11-04T06:57:56.531Z,20.17
2018-11-04T07:00:24.057Z,18.85
2018-11-04T07:02:51.648Z,20.02
2018-11-04T07:05:19.207Z,18.65
2018-11-04T07:07:46.858Z,19.75
2018-11-04T07:10:14.394Z,19.85
2018-11-04T07:12:42.004Z,19.57
2018-11-04T07:15:09.596Z,19.00
2018-11-04T07:17:37.279Z,18.37
2018-11-04T07:20:06.066Z,17.45
2018-11-04T07:22:33.538Z,17.70
2018-11-04T07:25:01.065Z,18.32
2018-11-04T07:27:35.340Z,19.45
2018-11-04T07:30:03.029Z,18.90
2018-11-04T07:32:30.592Z,17.67
2018-11-04T07:34:58.223Z,17.70
2018-11-04T07:37:25.894Z,19.02
2018-11-04T07:39:53.533Z,19.30
2018-11-04T07:42:21.154Z,19.30
2018-11-04T07:44:48.709Z,17.92
2018-11-04T07:47:16.300Z,17.50
2018-11-04T07:49:43.889Z,18.80
2018-11-04T07:52:11.419Z,19.55
2018-11-04T07:54:39.052Z,18.65
2018-11-04T07:57:06.638Z,17.25
2018-11-04T07:59:34.271Z,17.05
2018-11-04T08:02:01.932Z,17.90
2018-11-04T08:04:29.492Z,17.82
2018-11-04T08:06:57.058Z,18.50
2018-11-04T08:09:24.667Z,17.98
2018-11-04T08:11:52.272Z,17.77
2018-11-04T08:14:19.831Z,18.12
2018-11-04T08:16:47.456Z,18.75
2018-11-04T08:19:15.072Z,18.42
2018-11-04T08:21:42.784Z,17.42
2018-11-04T08:24:10.389Z,18.23
2018-11-04T08:26:38.067Z,17.85
2018-11-04T08:29:05.665Z,19.10
2018-11-04T08:31:33.228Z,18.12
2018-11-04T08:34:00.797Z,19.60
2018-11-04T08:36:28.375Z,19.02
2018-11-04T08:38:56.015Z,20.82
2018-11-04T08:41:23.595Z,19.70
2018-11-04T08:43:51.219Z,19.70
2018-11-04T08:46:18.829Z,19.48
2018-11-04T08:48:46.481Z,18.30
2018-11-04T08:51:14.061Z,20.77
2018-11-04T08:53:41.653Z,19.95
2018-11-04T08:56:09.274Z,19.30
2018-11-04T08:58:36.994Z,20.72
2018-11-04T09:01:04.806Z,20.48
2018-11-04T09:03:32.370Z,20.55
2018-11-04T09:05:59.965Z,19.85
2018-11-04T09:08:27.615Z,19.05
2018-11-04T09:10:55.206Z,21.07
2018-11-04T09:13:22.793Z,21.70
2018-11-04T09:15:50.452Z,22.95
2018-11-04T09:18:18.043Z,19.52
2018-11-04T09:20:45.705Z,18.55
2018-11-04T09:23:13.610Z,20.48
2018-11-04T09:25:41.333Z,21.80
2018-11-04T09:28:09.038Z,18.00
2018-11-04T09:30:36.747Z,19.77
2018-11-04T09:33:04.673Z,19.00
2018-11-04T09:35:32.540Z,20.62
2018-11-04T09:38:00.103Z,21.05
2018-11-04T09:40:27.780Z,20.97
2018-11-04T09:42:55.480Z,19.75
2018-11-04T09:45:23.200Z,21.37
2018-11-04T09:47:50.888Z,19.07
2018-11-04T09:50:18.567Z,17.37
2018-11-04T09:52:46.228Z,18.67
2018-11-04T09:55:13.928Z,17.27
2018-11-04T09:57:42.416Z,21.35
2018-11-04T10:00:11.215Z,19.00
2018-11-04T10:02:39.120Z,19.73
2018-11-04T10:05:07.720Z,20.32
2018-11-04T10:07:35.435Z,18.12
2018-11-04T10:10:03.590Z,19.27
2018-11-04T10:12:31.214Z,19.17
2018-11-04T10:14:59.559Z,18.10
2018-11-04T10:17:30.753Z,21.02
2018-11-04T10:19:58.599Z,20.17
2018-11-04T10:22:29.501Z,18.37
2018-11-04T10:24:57.164Z,18.27
2018-11-04T10:27:25.023Z,18.05
2018-11-04T10:29:53.636Z,18.75
2018-11-04T10:32:21.395Z,18.50
2018-11-04T10:34:52.095Z,17.82
2018-11-04T10:37:20.375Z,18.55
2018-11-04T10:39:54.612Z,20.20
2018-11-04T10:42:22.211Z,18.77
2018-11-04T10:44:49.938Z,18.30
2018-11-04T10:47:17.617Z,17.75
2018-11-04T10:49:45.355Z,17.25
2018-11-04T10:52:12.900Z,20.48
2018-11-04T10:54:40.621Z,18.87
2018-11-04T10:57:10.520Z,19.12
2018-11-04T10:59:39.546Z,19.25
2018-11-04T11:02:09.748Z,18.70
2018-11-04T11:04:37.661Z,19.00
2018-11-04T11:07:05.715Z,18.15
2018-11-04T11:09:33.317Z,19.10
2018-11-04T11:12:01.004Z,18.30
2018-11-04T11:14:28.631Z,21.80
2018-11-04T11:16:56.281Z,19.67
2018-11-04T11:19:24.188Z,17.52
2018-11-04T11:21:51.932Z,17.55
2018-11-04T11:24:19.583Z,18.37
2018-11-04T11:26:47.242Z,17.80
2018-11-04T11:29:14.820Z,18.55
2018-11-04T11:31:42.461Z,19.37
2018-11-04T11:34:10.947Z,18.17
2018-11-04T11:36:38.635Z,17.85
2018-11-04T11:39:09.090Z,20.50
2018-11-04T11:41:36.839Z,19.70
2018-11-04T11:44:04.654Z,17.67
2018-11-04T11:46:32.237Z,18.57
2018-11-04T11:49:00.003Z,18.80
2018-11-04T11:51:27.680Z,17.67
2018-11-04T11:53:55.388Z,19.42
2018-11-04T11:56:23.115Z,18.25
2018-11-04T11:58:50.876Z,18.02
2018-11-04T12:01:18.616Z,18.48
2018-11-04T12:03:46.242Z,18.50
2018-11-04T12:06:13.955Z,20.88
2018-11-04T12:08:41.583Z,19.65
2018-11-04T12:11:09.214Z,19.40
2018-11-04T12:13:36.873Z,21.15
2018-11-04T12:16:04.893Z,19.87
2018-11-04T12:18:32.607Z,18.87
2018-11-04T12:21:00.213Z,19.20
2018-11-04T12:23:28.001Z,19.05
2018-11-04T12:25:55.608Z,17.00
2018-11-04T12:28:23.431Z,18.48
2018-11-04T12:30:51.164Z,17.57
2018-11-04T12:33:18.838Z,18.07
2018-11-04T12:35:46.517Z,17.65
2018-11-04T12:38:14.196Z,19.80
2018-11-04T12:40:41.822Z,17.48
2018-11-04T12:43:09.412Z,18.07
2018-11-04T12:45:37.130Z,18.50
2018-11-04T12:48:04.906Z,18.82
2018-11-04T12:50:32.642Z,17.95
2018-11-04T12:53:00.267Z,17.98
2018-11-04T12:55:27.965Z,17.95
2018-11-04T12:57:55.612Z,20.17
2018-11-04T13:00:23.300Z,20.10
2018-11-04T13:02:50.983Z,19.95
2018-11-04T13:05:18.598Z,18.52
2018-11-04T13:07:46.326Z,19.12
2018-11-04T13:10:14.329Z,18.40
2018-11-04T13:12:41.980Z,19.60
2018-11-04T13:15:11.507Z,18.90
2018-11-04T13:17:39.289Z,20.60
2018-11-04T13:20:06.952Z,17.35
2018-11-04T13:22:34.665Z,18.60
2018-11-04T13:25:02.473Z,19.02
2018-11-04T13:27:30.120Z,17.70
2018-11-04T13:29:57.697Z,20.08
2018-11-04T13:32:25.438Z,18.80
2018-11-04T13:34:53.113Z,18.85
2018-11-04T13:37:20.928Z,18.27
2018-11-04T13:39:48.627Z,18.62
2018-11-04T13:42:16.357Z,18.32
2018-11-04T13:44:44.042Z,18.30
2018-11-04T13:47:11.770Z,18.70
2018-11-04T13:49:39.435Z,19.12
2018-11-04T13:52:07.102Z,19.35
2018-11-04T13:54:34.865Z,17.87
2018-11-04T13:57:02.521Z,19.20
2018-11-04T13:59:30.227Z,19.77
2018-11-04T14:01:57.931Z,19.32
2018-11-04T14:04:25.576Z,18.12
2018-11-04T14:06:53.227Z,19.00
2018-11-04T14:09:20.976Z,17.90
2018-11-04T14:11:48.729Z,17.12
2018-11-04T14:14:16.379Z,19.00
2018-11-04T14:16:44.025Z,16.67
2018-11-04T14:19:12.215Z,18.50
2018-11-04T14:21:39.920Z,17.12
2018-11-04T14:24:07.603Z,16.82
2018-11-04T14:26:35.292Z,17.75
2018-11-04T14:29:02.961Z,17.15
2018-11-04T14:31:30.565Z,17.75
2018-11-04T14:33:58.282Z,17.32
2018-11-04T14:36:25.885Z,15.72
2018-11-04T14:38:53.515Z,18.73
2018-11-04T14:41:21.229Z,16.42
2018-11-04T14:43:48.905Z,16.50
2018-11-04T14:46:16.551Z,16.02
2018-11-04T14:48:44.268Z,15.58
2018-11-04T14:51:11.970Z,16.48
2018-11-04T14:53:39.716Z,17.15
2018-11-04T14:56:07.353Z,14.63
2018-11-04T14:58:34.971Z,15.80
2018-11-04T15:01:02.734Z,14.47
2018-11-04T15:03:30.838Z,15.72
2018-11-04T15:05:58.550Z,14.55
2018-11-04T15:08:26.114Z,16.12
2018-11-04T15:10:54.737Z,14.78
2018-11-04T15:13:22.469Z,16.07
2018-11-04T15:15:50.065Z,15.20
2018-11-04T15:18:17.781Z,16.77
2018-11-04T15:20:45.465Z,13.78
2018-11-04T15:23:13.129Z,15.38
2018-11-04T15:25:40.736Z,15.60
2018-11-04T15:28:08.486Z,15.30
2018-11-04T15:30:36.138Z,13.53
2018-11-04T15:33:03.919Z,13.72
2018-11-04T15:35:31.728Z,14.35
2018-11-04T15:37:59.430Z,13.48
2018-11-04T15:40:27.102Z,14.00
2018-11-04T15:42:54.697Z,12.75
2018-11-04T15:45:22.389Z,12.03
2018-11-04T15:47:50.040Z,12.23
2018-11-04T15:50:18.537Z,14.00
2018-11-04T15:52:47.166Z,12.03
2018-11-04T15:55:14.870Z,12.18
2018-11-04T15:57:42.533Z,12.40
2018-11-04T16:00:11.770Z,13.53
2018-11-04T16:02:39.570Z,12.90
2018-11-04T16:05:08.227Z,12.75
2018-11-04T16:07:35.889Z,13.15
2018-11-04T16:10:04.052Z,16.05
2018-11-04T16:12:31.925Z,14.15
2018-11-04T16:14:59.729Z,16.20
2018-11-04T16:17:27.381Z,16.48
2018-11-04T16:19:54.986Z,13.95
2018-11-04T16:22:22.730Z,15.28
2018-11-04T16:24:50.455Z,13.28
2018-11-04T16:27:18.097Z,13.93
2018-11-04T16:29:45.723Z,14.30
2018-11-04T16:32:13.598Z,14.28
2018-11-04T16:34:41.096Z,15.25
2018-11-04T16:37:08.726Z,14.45
2018-11-04T16:39:36.461Z,15.05
2018-11-04T16:42:04.200Z,14.20
2018-11-04T16:44:31.900Z,13.70
2018-11-04T16:46:59.497Z,14.23
2018-11-04T16:49:27.171Z,14.83
2018-11-04T16:51:54.813Z,14.18
2018-11-04T16:54:22.421Z,14.15
2018-11-04T16:56:52.260Z,13.65
2018-11-04T16:59:20.198Z,15.95
2018-11-04T17:01:47.880Z,13.43
2018-11-04T17:04:15.647Z,13.62
2018-11-04T17:06:43.177Z,21.75
2018-11-04T17:09:10.873Z,15.30
2018-11-04T17:11:38.519Z,16.23
2018-11-04T17:14:06.163Z,13.75
2018-11-04T17:16:33.855Z,16.23
2018-11-04T17:19:01.524Z,14.23
2018-11-04T17:21:29.125Z,14.50
2018-11-04T17:23:56.784Z,14.90
2018-11-04T17:26:24.443Z,14.50
2018-11-04T17:28:52.088Z,15.00
2018-11-04T17:31:19.814Z,14.18
2018-11-04T17:33:47.478Z,14.58
2018-11-04T17:36:15.230Z,14.55
2018-11-04T17:38:42.917Z,13.08
2018-11-04T17:41:10.631Z,15.63
2018-11-04T17:43:38.351Z,14.55
2018-11-04T17:46:06.291Z,14.68
2018-11-04T17:48:34.002Z,14.68
2018-11-04T17:51:01.665Z,14.03
2018-11-04T17:53:29.379Z,15.28
2018-11-04T17:55:57.135Z,16.55
2018-11-04T17:58:24.730Z,15.53
2018-11-04T18:00:52.489Z,20.30
2018-11-04T18:03:20.204Z,22.82
2018-11-04T18:05:47.874Z,25.35
2018-11-04T18:08:15.555Z,26.57
2018-11-04T18:10:43.186Z,26.55
2018-11-04T18:13:10.950Z,24.77
2018-11-04T18:15:38.628Z,25.20
2018-11-04T18:18:06.415Z,23.83
2018-11-04T18:20:34.157Z,23.22
2018-11-04T18:23:01.784Z,22.00
2018-11-04T18:25:29.468Z,20.00
2018-11-04T18:27:57.243Z,19.60
2018-11-04T18:30:25.148Z,18.52
2018-11-04T18:32:52.949Z,20.20
2018-11-04T18:35:20.691Z,18.98
2018-11-04T18:37:48.570Z,18.80
2018-11-04T18:40:17.450Z,21.12
2018-11-04T18:42:45.495Z,18.85
2018-11-04T18:45:14.300Z,18.20
2018-11-04T18:47:42.383Z,19.25
2018-11-04T18:50:16.835Z,17.17
2018-11-04T18:52:44.981Z,17.77
2018-11-04T18:55:12.810Z,17.80
2018-11-04T18:57:41.369Z,17.95
2018-11-04T19:00:11.556Z,17.17
2018-11-04T19:02:39.353Z,17.57
2018-11-04T19:05:07.773Z,17.07
2018-11-04T19:07:35.626Z,16.80
2018-11-04T19:10:04.003Z,17.17
2018-11-04T19:12:31.816Z,15.78
2018-11-04T19:14:59.757Z,17.32
2018-11-04T19:17:27.525Z,17.87
2018-11-04T19:19:56.315Z,16.80
2018-11-04T19:22:24.140Z,18.23
2018-11-04T19:24:51.899Z,17.17
2018-11-04T19:27:19.719Z,16.67
2018-11-04T19:29:47.576Z,15.63
2018-11-04T19:32:15.288Z,16.80
2018-11-04T19:34:43.012Z,15.90
2018-11-04T19:37:10.799Z,16.15
2018-11-04T19:39:38.515Z,16.35
2018-11-04T19:42:06.365Z,17.73
2018-11-04T19:44:34.030Z,17.27
2018-11-04T19:47:01.827Z,17.17
2018-11-04T19:49:29.708Z,17.32
2018-11-04T19:51:57.397Z,17.02
2018-11-04T19:54:25.290Z,17.20
2018-11-04T19:56:53.037Z,16.48
2018-11-04T19:59:21.021Z,16.82
2018-11-04T20:01:48.793Z,17.23
2018-11-04T20:04:16.506Z,17.90
2018-11-04T20:06:44.448Z,18.37
2018-11-04T20:09:16.379Z,18.00
2018-11-04T20:11:44.777Z,17.12
2018-11-04T20:14:15.372Z,17.87
2018-11-04T20:16:43.587Z,18.02
2018-11-04T20:19:16.918Z,17.55
2018-11-04T20:21:44.845Z,15.83
2018-11-04T20:24:18.225Z,16.57
2018-11-04T20:26:45.992Z,17.73
2018-11-04T20:29:13.957Z,19.45
2018-11-04T20:33:50.079Z,17.55
2018-11-04T20:36:17.947Z,17.40
2018-11-04T20:38:51.368Z,18.35
2018-11-04T20:41:24.674Z,18.30
2018-11-04T20:43:52.418Z,17.80
2018-11-04T20:46:20.158Z,17.40
2018-11-04T20:48:53.572Z,19.12
2018-11-04T20:51:21.449Z,18.80
2018-11-04T20:53:49.187Z,18.48
2018-11-04T20:56:22.380Z,18.50
2018-11-04T20:58:50.110Z,18.45
2018-11-04T21:01:17.844Z,19.45
2018-11-04T21:03:45.524Z,17.90
2018-11-04T21:06:13.185Z,18.37
2018-11-04T21:08:40.951Z,17.25
2018-11-04T21:11:08.604Z,18.45
2018-11-04T21:13:36.423Z,17.45
2018-11-04T21:16:04.373Z,18.65
2018-11-04T21:18:32.027Z,18.55
2018-11-04T21:20:59.705Z,17.62
2018-11-04T21:23:27.410Z,18.10
2018-11-04T21:25:55.049Z,18.27
2018-11-04T21:28:22.777Z,14.90
2018-11-04T21:30:50.358Z,16.52
2018-11-04T21:33:18.036Z,17.70
2018-11-04T21:35:45.834Z,17.52
2018-11-04T21:38:13.438Z,17.67
2018-11-04T21:40:41.151Z,17.95
2018-11-04T21:43:08.880Z,17.12
2018-11-04T21:45:36.489Z,20.77
2018-11-04T21:48:04.236Z,17.87
2018-11-04T21:50:31.882Z,17.32
2018-11-04T21:52:59.572Z,18.77
2018-11-04T21:55:27.422Z,19.20
2018-11-04T21:57:54.929Z,18.05
2018-11-04T22:00:22.570Z,18.77
2018-11-04T22:02:50.371Z,16.57
2018-11-04T22:05:17.892Z,17.75
2018-11-04T22:07:45.501Z,17.77
2018-11-04T22:10:19.817Z,19.80
2018-11-04T22:12:47.614Z,19.05
2018-11-04T22:15:15.262Z,17.12
2018-11-04T22:17:42.956Z,19.60
2018-11-04T22:20:11.881Z,18.17
2018-11-04T22:22:39.687Z,18.20
2018-11-04T22:25:07.992Z,19.15
2018-11-04T22:27:35.727Z,17.00
2018-11-04T22:30:03.723Z,18.77
2018-11-04T22:32:31.556Z,18.73
2018-11-04T22:34:59.224Z,17.35
2018-11-04T22:37:26.884Z,18.07
2018-11-04T22:39:54.546Z,17.45
2018-11-04T22:42:22.370Z,18.80
2018-11-04T22:44:49.897Z,17.87
2018-11-04T22:47:17.572Z,20.00
2018-11-04T22:49:45.203Z,17.70
2018-11-04T22:52:12.791Z,18.90
2018-11-04T22:54:40.424Z,19.17
2018-11-04T22:57:08.084Z,16.57
2018-11-04T22:59:35.680Z,17.60
2018-11-04T23:02:03.412Z,18.57
2018-11-04T23:04:36.528Z,18.10
2018-11-04T23:07:04.256Z,19.52
2018-11-04T23:09:31.915Z,18.10
2018-11-04T23:11:59.498Z,19.37
2018-11-04T23:14:27.100Z,19.25
2018-11-04T23:16:54.753Z,18.90
2018-11-04T23:19:22.404Z,19.02
2018-11-04T23:21:50.748Z,18.90
2018-11-04T23:24:18.353Z,16.75
2018-11-04T23:26:45.978Z,18.75
2018-11-04T23:29:13.741Z,19.67
2018-11-04T23:31:41.366Z,18.15
2018-11-04T23:34:09.033Z,16.97
2018-11-04T23:36:36.628Z,17.62
2018-11-04T23:39:05.956Z,16.40
2018-11-04T23:41:33.541Z,16.90
2018-11-04T23:44:01.103Z,18.57
2018-11-04T23:46:28.667Z,16.55
2018-11-04T23:48:56.296Z,18.15
2018-11-04T23:51:23.917Z,17.45
2018-11-04T23:53:51.508Z,17.80
2018-11-04T23:56:19.108Z,18.02
2018-11-04T23:58:46.702Z,18.00
